sensor_id;sensor_type;location;lat;lon;timestamp;pressure;altitude;pressure_sealevel;temperature;humidity
50933;BME280;36921;49.006;9.292;2022-12-16T00:01:17;97543.53;;;-1.98;100.00
50933;BME280;36921;49.006;9.292;2022-12-16T00:03:50;97545.69;;;-2.01;100.00
50933;BME280;36921;49.006;9.292;2022-12-16T00:06:16;97567.00;;;-1.85;100.00
50933;BME280;36921;49.006;9.292;2022-12-16T00:08:41;97554.81;;;-1.95;100.00
50933;BME280;36921;49.006;9.292;2022-12-16T00:11:07;97561.19;;;-1.88;100.00
50933;BME280;36921;49.006;9.292;2022-12-16T00:13:34;97560.88;;;-1.85;100.00
50933;BME280;36921;49.006;9.292;2022-12-16T00:16:04;97575.00;;;-1.77;100.00
50933;BME280;36921;49.006;9.292;2022-12-16T00:18:30;97549.22;;;-1.92;100.00
50933;BME280;36921;49.006;9.292;2022-12-16T00:20:55;97547.56;;;-1.93;100.00
50933;BME280;36921;49.006;9.292;2022-12-16T00:23:22;97570.69;;;-1.78;100.00
50933;BME280;36921;49.006;9.292;2022-12-16T00:25:47;97566.00;;;-1.84;100.00
50933;BME280;36921;49.006;9.292;2022-12-16T00:28:14;97541.25;;;-1.92;100.00
50933;BME280;36921;49.006;9.292;2022-12-16T00:30:41;97558.13;;;-1.75;100.00
50933;BME280;36921;49.006;9.292;2022-12-16T00:33:07;97551.59;;;-1.81;100.00
50933;BME280;36921;49.006;9.292;2022-12-16T00:35:32;97565.72;;;-1.81;100.00
50933;BME280;36921;49.006;9.292;2022-12-16T00:37:58;97560.28;;;-1.71;100.00
50933;BME280;36921;49.006;9.292;2022-12-16T00:40:23;97567.88;;;-1.76;100.00
50933;BME280;36921;49.006;9.292;2022-12-16T00:42:49;97543.22;;;-1.94;100.00
50933;BME280;36921;49.006;9.292;2022-12-16T00:45:14;97556.53;;;-1.86;100.00
50933;BME280;36921;49.006;9.292;2022-12-16T00:47:40;97565.44;;;-1.69;100.00
50933;BME280;36921;49.006;9.292;2022-12-16T00:50:05;97569.56;;;-1.75;100.00
50933;BME280;36921;49.006;9.292;2022-12-16T00:52:31;97538.59;;;-1.92;100.00
50933;BME280;36921;49.006;9.292;2022-12-16T00:54:56;97579.94;;;-1.82;100.00
50933;BME280;36921;49.006;9.292;2022-12-16T00:57:21;97580.56;;;-1.88;100.00
50933;BME280;36921;49.006;9.292;2022-12-16T00:59:47;97585.91;;;-1.80;100.00
50933;BME280;36921;49.006;9.292;2022-12-16T01:02:12;97605.16;;;-1.78;100.00
50933;BME280;36921;49.006;9.292;2022-12-16T01:04:38;97608.91;;;-1.88;100.00
50933;BME280;36921;49.006;9.292;2022-12-16T01:07:03;97617.22;;;-1.83;100.00
50933;BME280;36921;49.006;9.292;2022-12-16T01:09:28;97613.19;;;-1.87;100.00
50933;BME280;36921;49.006;9.292;2022-12-16T01:11:53;97627.72;;;-1.91;100.00
50933;BME280;36921;49.006;9.292;2022-12-16T01:14:19;97622.22;;;-1.98;100.00
50933;BME280;36921;49.006;9.292;2022-12-16T01:16:44;97626.69;;;-1.99;100.00
50933;BME280;36921;49.006;9.292;2022-12-16T01:19:10;97616.56;;;-2.03;100.00
50933;BME280;36921;49.006;9.292;2022-12-16T01:21:36;97628.53;;;-1.99;100.00
50933;BME280;36921;49.006;9.292;2022-12-16T01:24:01;97596.81;;;-2.27;100.00
50933;BME280;36921;49.006;9.292;2022-12-16T01:26:26;97618.38;;;-2.22;100.00
50933;BME280;36921;49.006;9.292;2022-12-16T01:28:52;97633.84;;;-2.17;100.00
50933;BME280;36921;49.006;9.292;2022-12-16T01:31:18;97631.78;;;-2.23;100.00
50933;BME280;36921;49.006;9.292;2022-12-16T01:33:44;97615.41;;;-2.36;100.00
50933;BME280;36921;49.006;9.292;2022-12-16T01:36:10;97637.38;;;-2.26;100.00
50933;BME280;36921;49.006;9.292;2022-12-16T01:38:35;97640.41;;;-2.21;100.00
50933;BME280;36921;49.006;9.292;2022-12-16T01:41:01;97634.03;;;-2.28;100.00
50933;BME280;36921;49.006;9.292;2022-12-16T01:43:29;97632.91;;;-2.26;100.00
50933;BME280;36921;49.006;9.292;2022-12-16T01:45:59;97629.59;;;-2.28;100.00
50933;BME280;36921;49.006;9.292;2022-12-16T01:51:08;97627.41;;;-2.32;100.00
50933;BME280;36921;49.006;9.292;2022-12-16T01:53:36;97610.75;;;-2.43;100.00
50933;BME280;36921;49.006;9.292;2022-12-16T01:56:03;97643.13;;;-2.31;100.00
50933;BME280;36921;49.006;9.292;2022-12-16T01:58:30;97630.34;;;-2.35;100.00
50933;BME280;36921;49.006;9.292;2022-12-16T02:00:58;97628.09;;;-2.30;100.00
50933;BME280;36921;49.006;9.292;2022-12-16T02:03:24;97608.16;;;-2.52;100.00
50933;BME280;36921;49.006;9.292;2022-12-16T02:05:50;97639.94;;;-2.34;100.00
50933;BME280;36921;49.006;9.292;2022-12-16T02:08:18;97649.19;;;-2.21;100.00
50933;BME280;36921;49.006;9.292;2022-12-16T02:15:51;97666.69;;;-2.28;100.00
50933;BME280;36921;49.006;9.292;2022-12-16T02:18:36;97654.84;;;-2.33;100.00
50933;BME280;36921;49.006;9.292;2022-12-16T02:21:09;97673.56;;;-2.17;100.00
50933;BME280;36921;49.006;9.292;2022-12-16T02:32:22;97673.56;;;-2.17;100.00
50933;BME280;36921;49.006;9.292;2022-12-16T02:35:30;97672.56;;;-2.16;100.00
50933;BME280;36921;49.006;9.292;2022-12-16T02:38:13;97677.81;;;-2.24;100.00
50933;BME280;36921;49.006;9.292;2022-12-16T02:40:53;97664.47;;;-2.32;100.00
50933;BME280;36921;49.006;9.292;2022-12-16T02:45:53;97647.38;;;-2.38;100.00
50933;BME280;36921;49.006;9.292;2022-12-16T02:48:18;97636.41;;;-2.43;100.00
50933;BME280;36921;49.006;9.292;2022-12-16T02:50:46;97667.13;;;-2.32;100.00
50933;BME280;36921;49.006;9.292;2022-12-16T02:53:13;97648.13;;;-2.46;100.00
50933;BME280;36921;49.006;9.292;2022-12-16T02:58:18;97674.47;;;-2.26;100.00
50933;BME280;36921;49.006;9.292;2022-12-16T03:00:57;97655.75;;;-2.43;100.00
50933;BME280;36921;49.006;9.292;2022-12-16T03:03:53;97672.56;;;-2.34;100.00
50933;BME280;36921;49.006;9.292;2022-12-16T03:06:19;97666.44;;;-2.34;100.00
50933;BME280;36921;49.006;9.292;2022-12-16T03:08:50;97652.81;;;-2.39;100.00
50933;BME280;36921;49.006;9.292;2022-12-16T03:11:17;97666.13;;;-2.31;100.00
50933;BME280;36921;49.006;9.292;2022-12-16T03:13:49;97671.81;;;-2.26;100.00
50933;BME280;36921;49.006;9.292;2022-12-16T03:16:17;97690.31;;;-2.16;100.00
50933;BME280;36921;49.006;9.292;2022-12-16T03:18:48;97682.59;;;-2.28;100.00
50933;BME280;36921;49.006;9.292;2022-12-16T03:21:16;97697.91;;;-2.31;100.00
50933;BME280;36921;49.006;9.292;2022-12-16T03:23:56;97690.34;;;-2.26;100.00
50933;BME280;36921;49.006;9.292;2022-12-16T03:29:24;97706.56;;;-2.29;100.00
50933;BME280;36921;49.006;9.292;2022-12-16T03:32:00;97704.97;;;-2.22;100.00
50933;BME280;36921;49.006;9.292;2022-12-16T03:34:42;97704.69;;;-2.19;100.00
50933;BME280;36921;49.006;9.292;2022-12-16T03:37:11;97696.25;;;-2.32;100.00
50933;BME280;36921;49.006;9.292;2022-12-16T03:39:49;97679.50;;;-2.51;100.00
50933;BME280;36921;49.006;9.292;2022-12-16T03:42:16;97706.88;;;-2.32;100.00
50933;BME280;36921;49.006;9.292;2022-12-16T03:44:43;97702.44;;;-2.42;100.00
50933;BME280;36921;49.006;9.292;2022-12-16T03:47:08;97709.72;;;-2.44;100.00
50933;BME280;36921;49.006;9.292;2022-12-16T03:49:35;97706.91;;;-2.42;100.00
50933;BME280;36921;49.006;9.292;2022-12-16T03:52:00;97717.47;;;-2.32;100.00
50933;BME280;36921;49.006;9.292;2022-12-16T03:54:26;97711.09;;;-2.39;100.00
50933;BME280;36921;49.006;9.292;2022-12-16T03:56:51;97710.09;;;-2.38;100.00
50933;BME280;36921;49.006;9.292;2022-12-16T03:59:16;97708.06;;;-2.27;100.00
50933;BME280;36921;49.006;9.292;2022-12-16T04:01:42;97707.44;;;-2.38;100.00
50933;BME280;36921;49.006;9.292;2022-12-16T04:04:07;97732.25;;;-2.12;100.00
50933;BME280;36921;49.006;9.292;2022-12-16T04:06:33;97712.94;;;-2.22;100.00
50933;BME280;36921;49.006;9.292;2022-12-16T04:08:58;97716.03;;;-2.27;100.00
50933;BME280;36921;49.006;9.292;2022-12-16T04:11:24;97730.34;;;-2.19;100.00
50933;BME280;36921;49.006;9.292;2022-12-16T04:14:08;97727.22;;;-2.15;100.00
50933;BME280;36921;49.006;9.292;2022-12-16T04:16:52;97715.72;;;-2.24;100.00
50933;BME280;36921;49.006;9.292;2022-12-16T04:19:36;97728.00;;;-2.23;100.00
50933;BME280;36921;49.006;9.292;2022-12-16T04:22:22;97743.81;;;-2.13;100.00
50933;BME280;36921;49.006;9.292;2022-12-16T04:25:13;97748.72;;;-2.18;100.00
50933;BME280;36921;49.006;9.292;2022-12-16T04:27:38;97731.91;;;-2.27;100.00
50933;BME280;36921;49.006;9.292;2022-12-16T04:30:04;97729.53;;;-2.20;100.00
50933;BME280;36921;49.006;9.292;2022-12-16T04:33:00;97742.59;;;-2.18;100.00
50933;BME280;36921;49.006;9.292;2022-12-16T04:35:48;97755.25;;;-2.12;100.00
50933;BME280;36921;49.006;9.292;2022-12-16T04:38:32;97744.94;;;-2.15;100.00
50933;BME280;36921;49.006;9.292;2022-12-16T04:41:16;97750.50;;;-2.09;100.00
50933;BME280;36921;49.006;9.292;2022-12-16T04:44:00;97758.00;;;-2.04;100.00
50933;BME280;36921;49.006;9.292;2022-12-16T04:46:44;97772.00;;;-2.12;100.00
50933;BME280;36921;49.006;9.292;2022-12-16T04:49:29;97765.31;;;-2.16;100.00
50933;BME280;36921;49.006;9.292;2022-12-16T04:52:13;97768.66;;;-2.14;100.00
50933;BME280;36921;49.006;9.292;2022-12-16T04:54:58;97773.25;;;-2.16;100.00
50933;BME280;36921;49.006;9.292;2022-12-16T04:57:51;97780.09;;;-2.13;100.00
50933;BME280;36921;49.006;9.292;2022-12-16T05:00:35;97780.78;;;-2.11;100.00
50933;BME280;36921;49.006;9.292;2022-12-16T05:03:19;97785.38;;;-2.13;100.00
50933;BME280;36921;49.006;9.292;2022-12-16T05:06:04;97781.91;;;-2.14;100.00
50933;BME280;36921;49.006;9.292;2022-12-16T05:08:48;97782.59;;;-2.12;100.00
50933;BME280;36921;49.006;9.292;2022-12-16T05:11:32;97791.06;;;-2.08;100.00
50933;BME280;36921;49.006;9.292;2022-12-16T05:14:16;97796.91;;;-2.05;100.00
50933;BME280;36921;49.006;9.292;2022-12-16T05:17:00;97798.16;;;-1.99;100.00
50933;BME280;36921;49.006;9.292;2022-12-16T05:19:44;97801.63;;;-1.99;100.00
50933;BME280;36921;49.006;9.292;2022-12-16T05:22:28;97798.97;;;-1.99;100.00
50933;BME280;36921;49.006;9.292;2022-12-16T05:25:12;97801.47;;;-1.97;100.00
50933;BME280;36921;49.006;9.292;2022-12-16T05:27:55;97809.81;;;-1.92;100.00
50933;BME280;36921;49.006;9.292;2022-12-16T05:30:39;97811.31;;;-1.89;100.00
50933;BME280;36921;49.006;9.292;2022-12-16T05:33:23;97818.06;;;-1.95;100.00
50933;BME280;36921;49.006;9.292;2022-12-16T05:36:08;97822.44;;;-2.04;100.00
50933;BME280;36921;49.006;9.292;2022-12-16T05:38:52;97823.28;;;-2.03;100.00
50933;BME280;36921;49.006;9.292;2022-12-16T05:41:37;97832.22;;;-2.04;100.00
50933;BME280;36921;49.006;9.292;2022-12-16T05:44:22;97840.44;;;-2.07;100.00
50933;BME280;36921;49.006;9.292;2022-12-16T05:47:06;97845.72;;;-2.07;100.00
50933;BME280;36921;49.006;9.292;2022-12-16T05:49:50;97835.28;;;-2.09;100.00
50933;BME280;36921;49.006;9.292;2022-12-16T05:52:34;97846.84;;;-2.10;100.00
50933;BME280;36921;49.006;9.292;2022-12-16T05:55:18;97845.28;;;-2.03;100.00
50933;BME280;36921;49.006;9.292;2022-12-16T05:58:02;97857.59;;;-2.02;100.00
50933;BME280;36921;49.006;9.292;2022-12-16T06:00:47;97857.72;;;-2.03;100.00
50933;BME280;36921;49.006;9.292;2022-12-16T06:03:31;97856.59;;;-2.01;100.00
50933;BME280;36921;49.006;9.292;2022-12-16T06:06:15;97867.88;;;-1.99;100.00
50933;BME280;36921;49.006;9.292;2022-12-16T06:08:58;97869.72;;;-1.99;100.00
50933;BME280;36921;49.006;9.292;2022-12-16T06:11:42;97879.75;;;-2.03;100.00
50933;BME280;36921;49.006;9.292;2022-12-16T06:14:26;97883.00;;;-2.09;100.00
50933;BME280;36921;49.006;9.292;2022-12-16T06:17:10;97892.78;;;-2.09;100.00
50933;BME280;36921;49.006;9.292;2022-12-16T06:19:54;97890.94;;;-2.09;100.00
50933;BME280;36921;49.006;9.292;2022-12-16T06:22:38;97888.69;;;-2.04;100.00
50933;BME280;36921;49.006;9.292;2022-12-16T06:25:22;97900.00;;;-2.02;100.00
50933;BME280;36921;49.006;9.292;2022-12-16T06:28:06;97898.00;;;-2.00;100.00
50933;BME280;36921;49.006;9.292;2022-12-16T06:30:50;97903.59;;;-2.03;100.00
50933;BME280;36921;49.006;9.292;2022-12-16T06:33:34;97906.53;;;-1.96;100.00
50933;BME280;36921;49.006;9.292;2022-12-16T06:36:18;97912.25;;;-2.01;100.00
50933;BME280;36921;49.006;9.292;2022-12-16T06:39:02;97907.81;;;-2.10;100.00
50933;BME280;36921;49.006;9.292;2022-12-16T06:41:46;97909.78;;;-2.12;100.00
50933;BME280;36921;49.006;9.292;2022-12-16T06:44:30;97918.16;;;-2.07;100.00
50933;BME280;36921;49.006;9.292;2022-12-16T06:47:14;97914.78;;;-2.09;100.00
50933;BME280;36921;49.006;9.292;2022-12-16T06:49:58;97940.19;;;-2.06;100.00
50933;BME280;36921;49.006;9.292;2022-12-16T06:52:42;97937.34;;;-1.95;100.00
50933;BME280;36921;49.006;9.292;2022-12-16T06:55:27;97939.16;;;-1.95;100.00
50933;BME280;36921;49.006;9.292;2022-12-16T06:58:11;97952.50;;;-1.87;100.00
50933;BME280;36921;49.006;9.292;2022-12-16T07:00:55;97960.34;;;-1.86;100.00
50933;BME280;36921;49.006;9.292;2022-12-16T07:03:39;97959.22;;;-1.83;100.00
50933;BME280;36921;49.006;9.292;2022-12-16T07:06:23;97968.00;;;-1.83;100.00
50933;BME280;36921;49.006;9.292;2022-12-16T07:09:07;97971.03;;;-1.78;100.00
50933;BME280;36921;49.006;9.292;2022-12-16T07:11:52;97969.94;;;-1.85;100.00
50933;BME280;36921;49.006;9.292;2022-12-16T07:14:36;97976.06;;;-1.84;100.00
50933;BME280;36921;49.006;9.292;2022-12-16T07:17:20;97985.13;;;-1.77;100.00
50933;BME280;36921;49.006;9.292;2022-12-16T07:20:04;97987.50;;;-1.84;100.00
50933;BME280;36921;49.006;9.292;2022-12-16T07:22:48;97986.38;;;-1.81;100.00
50933;BME280;36921;49.006;9.292;2022-12-16T07:25:32;97989.34;;;-1.84;100.00
50933;BME280;36921;49.006;9.292;2022-12-16T07:28:19;97996.88;;;-1.89;100.00
50933;BME280;36921;49.006;9.292;2022-12-16T07:31:19;98004.94;;;-1.81;100.00
50933;BME280;36921;49.006;9.292;2022-12-16T07:34:05;98006.34;;;-1.77;100.00
50933;BME280;36921;49.006;9.292;2022-12-16T07:37:00;98010.66;;;-1.76;100.00
50933;BME280;36921;49.006;9.292;2022-12-16T07:39:44;98010.25;;;-1.81;100.00
50933;BME280;36921;49.006;9.292;2022-12-16T07:42:28;98011.50;;;-1.75;100.00
50933;BME280;36921;49.006;9.292;2022-12-16T07:45:12;98018.03;;;-1.70;100.00
50933;BME280;36921;49.006;9.292;2022-12-16T07:47:56;98015.63;;;-1.63;100.00
50933;BME280;36921;49.006;9.292;2022-12-16T07:50:40;98016.13;;;-1.50;100.00
50933;BME280;36921;49.006;9.292;2022-12-16T07:53:25;98025.31;;;-1.44;100.00
50933;BME280;36921;49.006;9.292;2022-12-16T07:56:09;98029.22;;;-1.39;100.00
50933;BME280;36921;49.006;9.292;2022-12-16T07:58:53;98025.47;;;-1.46;100.00
50933;BME280;36921;49.006;9.292;2022-12-16T08:01:38;98035.53;;;-1.49;100.00
50933;BME280;36921;49.006;9.292;2022-12-16T08:04:22;98031.50;;;-1.26;100.00
50933;BME280;36921;49.006;9.292;2022-12-16T08:07:06;98045.88;;;-1.19;100.00
50933;BME280;36921;49.006;9.292;2022-12-16T08:09:49;98046.66;;;-1.08;100.00
50933;BME280;36921;49.006;9.292;2022-12-16T08:12:34;98052.97;;;-1.09;100.00
50933;BME280;36921;49.006;9.292;2022-12-16T08:15:17;98064.34;;;-0.99;100.00
50933;BME280;36921;49.006;9.292;2022-12-16T08:18:02;98069.31;;;-1.14;100.00
50933;BME280;36921;49.006;9.292;2022-12-16T08:20:46;98068.78;;;-1.18;100.00
50933;BME280;36921;49.006;9.292;2022-12-16T08:23:30;98082.91;;;-1.27;100.00
50933;BME280;36921;49.006;9.292;2022-12-16T08:26:14;98084.88;;;-1.29;100.00
50933;BME280;36921;49.006;9.292;2022-12-16T08:29:17;98082.03;;;-1.45;100.00
50933;BME280;36921;49.006;9.292;2022-12-16T08:32:01;98083.25;;;-1.40;100.00
50933;BME280;36921;49.006;9.292;2022-12-16T08:34:45;98088.56;;;-1.40;100.00
50933;BME280;36921;49.006;9.292;2022-12-16T08:37:29;98098.22;;;-1.39;100.00
50933;BME280;36921;49.006;9.292;2022-12-16T08:40:13;98100.69;;;-1.37;100.00
50933;BME280;36921;49.006;9.292;2022-12-16T08:42:57;98107.97;;;-1.39;100.00
50933;BME280;36921;49.006;9.292;2022-12-16T08:45:41;98105.03;;;-1.36;100.00
50933;BME280;36921;49.006;9.292;2022-12-16T08:48:26;98120.22;;;-1.28;100.00
50933;BME280;36921;49.006;9.292;2022-12-16T08:51:10;98120.66;;;-1.33;100.00
50933;BME280;36921;49.006;9.292;2022-12-16T08:53:54;98130.69;;;-1.27;100.00
50933;BME280;36921;49.006;9.292;2022-12-16T08:56:38;98117.97;;;-1.23;100.00
50933;BME280;36921;49.006;9.292;2022-12-16T08:59:22;98122.44;;;-1.24;100.00
50933;BME280;36921;49.006;9.292;2022-12-16T09:02:09;98128.66;;;-1.05;100.00
50933;BME280;36921;49.006;9.292;2022-12-16T09:05:10;98130.97;;;-0.93;100.00
50933;BME280;36921;49.006;9.292;2022-12-16T09:07:58;98141.13;;;-0.60;100.00
50933;BME280;36921;49.006;9.292;2022-12-16T09:10:43;98130.53;;;-0.25;100.00
50933;BME280;36921;49.006;9.292;2022-12-16T09:13:26;98137.84;;;-0.09;100.00
50933;BME280;36921;49.006;9.292;2022-12-16T09:16:11;98127.44;;;0.16;100.00
50933;BME280;36921;49.006;9.292;2022-12-16T09:18:54;98143.41;;;0.42;100.00
50933;BME280;36921;49.006;9.292;2022-12-16T09:21:39;98141.00;;;0.31;100.00
50933;BME280;36921;49.006;9.292;2022-12-16T09:24:22;98146.84;;;0.34;100.00
50933;BME280;36921;49.006;9.292;2022-12-16T09:27:07;98161.69;;;0.37;100.00
50933;BME280;36921;49.006;9.292;2022-12-16T09:29:51;98156.44;;;0.27;100.00
50933;BME280;36921;49.006;9.292;2022-12-16T09:32:40;98153.84;;;0.35;100.00
50933;BME280;36921;49.006;9.292;2022-12-16T09:35:24;98146.56;;;0.19;100.00
50933;BME280;36921;49.006;9.292;2022-12-16T09:38:08;98153.16;;;0.33;100.00
50933;BME280;36921;49.006;9.292;2022-12-16T09:40:52;98166.94;;;0.11;100.00
50933;BME280;36921;49.006;9.292;2022-12-16T09:49:39;98169.94;;;-0.38;100.00
50933;BME280;36921;49.006;9.292;2022-12-16T09:52:25;98172.75;;;-0.39;100.00
50933;BME280;36921;49.006;9.292;2022-12-16T09:55:32;98172.00;;;-0.14;100.00
50933;BME280;36921;49.006;9.292;2022-12-16T09:58:20;98175.19;;;0.26;100.00
50933;BME280;36921;49.006;9.292;2022-12-16T10:01:10;98174.88;;;0.73;100.00
50933;BME280;36921;49.006;9.292;2022-12-16T10:03:54;98170.09;;;1.02;100.00
50933;BME280;36921;49.006;9.292;2022-12-16T10:06:42;98177.88;;;1.30;100.00
50933;BME280;36921;49.006;9.292;2022-12-16T10:21:59;98172.66;;;3.89;94.43
50933;BME280;36921;49.006;9.292;2022-12-16T10:24:54;98171.41;;;4.69;89.80
50933;BME280;36921;49.006;9.292;2022-12-16T10:27:47;98172.84;;;4.94;83.25
50933;BME280;36921;49.006;9.292;2022-12-16T10:30:35;98170.91;;;5.03;80.41
50933;BME280;36921;49.006;9.292;2022-12-16T10:33:22;98184.56;;;4.55;79.56
50933;BME280;36921;49.006;9.292;2022-12-16T10:36:20;98178.59;;;4.07;81.54
50933;BME280;36921;49.006;9.292;2022-12-16T10:39:15;98185.28;;;3.72;83.05
50933;BME280;36921;49.006;9.292;2022-12-16T10:42:03;98194.97;;;3.42;86.40
50933;BME280;36921;49.006;9.292;2022-12-16T10:44:54;98192.19;;;3.19;89.13
50933;BME280;36921;49.006;9.292;2022-12-16T10:47:41;98190.75;;;3.47;87.26
50933;BME280;36921;49.006;9.292;2022-12-16T10:50:25;98185.69;;;3.92;85.46
50933;BME280;36921;49.006;9.292;2022-12-16T10:53:25;98186.56;;;4.15;82.50
50933;BME280;36921;49.006;9.292;2022-12-16T10:59:15;98190.84;;;4.25;82.97
50933;BME280;36921;49.006;9.292;2022-12-16T11:02:03;98187.34;;;4.01;80.22
50933;BME280;36921;49.006;9.292;2022-12-16T11:04:48;98189.16;;;4.70;78.23
50933;BME280;36921;49.006;9.292;2022-12-16T11:07:37;98200.03;;;5.06;75.92
50933;BME280;36921;49.006;9.292;2022-12-16T11:10:48;98196.59;;;4.97;74.61
50933;BME280;36921;49.006;9.292;2022-12-16T11:13:33;98202.06;;;4.66;74.02
50933;BME280;36921;49.006;9.292;2022-12-16T11:16:26;98199.94;;;4.61;72.84
50933;BME280;36921;49.006;9.292;2022-12-16T11:19:22;98203.09;;;4.65;74.72
50933;BME280;36921;49.006;9.292;2022-12-16T11:22:12;98206.19;;;4.31;74.12
50933;BME280;36921;49.006;9.292;2022-12-16T11:25:20;98198.88;;;4.48;75.39
50933;BME280;36921;49.006;9.292;2022-12-16T11:28:16;98206.38;;;4.52;72.81
50933;BME280;36921;49.006;9.292;2022-12-16T11:31:06;98207.22;;;4.30;71.73
50933;BME280;36921;49.006;9.292;2022-12-16T11:33:53;98204.94;;;4.18;73.24
50933;BME280;36921;49.006;9.292;2022-12-16T11:36:39;98210.25;;;4.50;73.06
50933;BME280;36921;49.006;9.292;2022-12-16T11:39:26;98220.72;;;4.36;73.47
50933;BME280;36921;49.006;9.292;2022-12-16T11:42:30;98215.13;;;4.69;72.61
50933;BME280;36921;49.006;9.292;2022-12-16T11:45:18;98220.72;;;4.82;72.21
50933;BME280;36921;49.006;9.292;2022-12-16T11:48:17;98222.88;;;4.64;72.38
50933;BME280;36921;49.006;9.292;2022-12-16T11:51:11;98229.50;;;4.91;71.94
50933;BME280;36921;49.006;9.292;2022-12-16T11:54:06;98224.88;;;4.62;69.73
50933;BME280;36921;49.006;9.292;2022-12-16T11:56:53;98231.94;;;5.16;71.20
50933;BME280;36921;49.006;9.292;2022-12-16T12:02:41;98237.06;;;4.88;70.56
50933;BME280;36921;49.006;9.292;2022-12-16T12:05:32;98240.44;;;4.67;71.08
50933;BME280;36921;49.006;9.292;2022-12-16T12:08:50;98251.31;;;4.42;73.06
50933;BME280;36921;49.006;9.292;2022-12-16T12:11:42;98251.78;;;4.23;72.37
50933;BME280;36921;49.006;9.292;2022-12-16T12:18:01;98263.25;;;4.00;73.29
50933;BME280;36921;49.006;9.292;2022-12-16T12:30:02;98265.63;;;3.47;77.02
50933;BME280;36921;49.006;9.292;2022-12-16T12:36:50;98278.50;;;3.52;78.57
50933;BME280;36921;49.006;9.292;2022-12-16T12:42:18;98280.56;;;3.81;73.14
50933;BME280;36921;49.006;9.292;2022-12-16T12:45:37;98284.53;;;3.38;73.05
50933;BME280;36921;49.006;9.292;2022-12-16T12:48:46;98289.50;;;3.65;73.94
50933;BME280;36921;49.006;9.292;2022-12-16T12:57:39;98290.69;;;3.63;78.27
50933;BME280;36921;49.006;9.292;2022-12-16T13:00:28;98288.56;;;3.89;79.10
50933;BME280;36921;49.006;9.292;2022-12-16T13:03:17;98286.66;;;3.67;77.80
50933;BME280;36921;49.006;9.292;2022-12-16T13:06:06;98286.38;;;4.01;77.06
50933;BME280;36921;49.006;9.292;2022-12-16T13:23:35;98312.97;;;3.14;81.80
50933;BME280;36921;49.006;9.292;2022-12-16T13:26:25;98311.31;;;3.05;84.28
50933;BME280;36921;49.006;9.292;2022-12-16T13:41:08;98337.84;;;2.57;95.51
50933;BME280;36921;49.006;9.292;2022-12-16T13:44:09;98344.13;;;2.40;100.00
50933;BME280;36921;49.006;9.292;2022-12-16T13:46:55;98345.72;;;2.16;99.87
50933;BME280;36921;49.006;9.292;2022-12-16T13:55:28;98361.44;;;1.59;100.00
50933;BME280;36921;49.006;9.292;2022-12-16T13:58:22;98361.25;;;1.52;100.00
50933;BME280;36921;49.006;9.292;2022-12-16T14:01:12;98373.47;;;1.37;100.00
50933;BME280;36921;49.006;9.292;2022-12-16T14:04:00;98364.09;;;1.33;100.00
50933;BME280;36921;49.006;9.292;2022-12-16T14:06:45;98367.16;;;1.20;100.00
50933;BME280;36921;49.006;9.292;2022-12-16T14:09:36;98378.44;;;1.14;100.00
50933;BME280;36921;49.006;9.292;2022-12-16T14:15:46;98398.69;;;1.07;100.00
50933;BME280;36921;49.006;9.292;2022-12-16T14:18:45;98390.47;;;1.00;100.00
50933;BME280;36921;49.006;9.292;2022-12-16T14:21:43;98403.84;;;0.73;100.00
50933;BME280;36921;49.006;9.292;2022-12-16T14:24:47;98411.63;;;0.66;100.00
50933;BME280;36921;49.006;9.292;2022-12-16T14:27:33;98406.09;;;0.50;100.00
50933;BME280;36921;49.006;9.292;2022-12-16T14:33:23;98419.00;;;0.27;100.00
50933;BME280;36921;49.006;9.292;2022-12-16T14:36:25;98420.56;;;0.19;100.00
50933;BME280;36921;49.006;9.292;2022-12-16T14:39:21;98430.38;;;0.19;100.00
50933;BME280;36921;49.006;9.292;2022-12-16T14:42:24;98435.72;;;0.09;100.00
50933;BME280;36921;49.006;9.292;2022-12-16T14:45:35;98439.81;;;0.04;100.00
50933;BME280;36921;49.006;9.292;2022-12-16T14:51:30;98453.63;;;0.07;100.00
50933;BME280;36921;49.006;9.292;2022-12-16T14:54:39;98448.50;;;-0.04;100.00
50933;BME280;36921;49.006;9.292;2022-12-16T14:57:28;98453.72;;;-0.12;100.00
50933;BME280;36921;49.006;9.292;2022-12-16T15:00:14;98464.22;;;-0.20;100.00
50933;BME280;36921;49.006;9.292;2022-12-16T15:03:07;98468.84;;;-0.32;100.00
50933;BME280;36921;49.006;9.292;2022-12-16T15:05:54;98464.13;;;-0.38;100.00
50933;BME280;36921;49.006;9.292;2022-12-16T15:08:51;98475.44;;;-0.56;100.00
50933;BME280;36921;49.006;9.292;2022-12-16T15:11:37;98475.88;;;-0.51;100.00
50933;BME280;36921;49.006;9.292;2022-12-16T15:14:32;98480.22;;;-0.59;100.00
50933;BME280;36921;49.006;9.292;2022-12-16T15:17:24;98484.97;;;-0.63;100.00
50933;BME280;36921;49.006;9.292;2022-12-16T15:20:21;98474.78;;;-0.68;100.00
50933;BME280;36921;49.006;9.292;2022-12-16T15:23:17;98491.84;;;-0.70;100.00
50933;BME280;36921;49.006;9.292;2022-12-16T15:26:01;98492.66;;;-0.70;100.00
50933;BME280;36921;49.006;9.292;2022-12-16T15:28:45;98501.03;;;-0.84;100.00
50933;BME280;36921;49.006;9.292;2022-12-16T15:31:33;98500.91;;;-0.82;100.00
50933;BME280;36921;49.006;9.292;2022-12-16T15:37:20;98509.44;;;-0.89;100.00
50933;BME280;36921;49.006;9.292;2022-12-16T15:40:22;98496.00;;;-1.06;100.00
50933;BME280;36921;49.006;9.292;2022-12-16T15:43:20;98526.47;;;-0.91;100.00
50933;BME280;36921;49.006;9.292;2022-12-16T15:46:05;98526.88;;;-1.05;100.00
50933;BME280;36921;49.006;9.292;2022-12-16T15:48:50;98520.44;;;-1.13;100.00
50933;BME280;36921;49.006;9.292;2022-12-16T15:51:44;98529.22;;;-1.02;100.00
50933;BME280;36921;49.006;9.292;2022-12-16T15:54:29;98533.13;;;-1.16;100.00
50933;BME280;36921;49.006;9.292;2022-12-16T15:57:31;98546.56;;;-1.18;100.00
50933;BME280;36921;49.006;9.292;2022-12-16T16:03:02;98549.63;;;-1.13;100.00
50933;BME280;36921;49.006;9.292;2022-12-16T16:05:45;98552.69;;;-1.17;100.00
50933;BME280;36921;49.006;9.292;2022-12-16T16:08:29;98558.84;;;-1.17;100.00
50933;BME280;36921;49.006;9.292;2022-12-16T16:11:13;98550.00;;;-1.27;100.00
50933;BME280;36921;49.006;9.292;2022-12-16T16:13:57;98565.81;;;-1.16;100.00
50933;BME280;36921;49.006;9.292;2022-12-16T16:16:41;98568.91;;;-1.20;100.00